Time;durP1;ratioP1;P1;durP2;ratioP2;P2;SDS_P1;SDS_P2;PMS_P1;PMS_P2;Temp;Humidity;BMP_temperature;BMP_pressure;BME280_temperature;BME280_humidity;BME280_pressure;Samples;Min_cycle;Max_cycle;Signal;HPM_P1;HPM_P2
2021/04/02 00:01:00;;;;;;;3.50;3.15;;;;;;;;;;5118976;27;20492;-57
2021/04/02 00:03:27;;;;;;;3.92;3.63;;;;;;;;;;5118451;27;20176;-56
2021/04/02 00:05:53;;;;;;;4.80;4.40;;;;;;;;;;5125545;27;20185;-56
2021/04/02 00:08:19;;;;;;;4.90;4.40;;;;;;;;;;5114810;28;20586;-56
2021/04/02 00:10:45;;;;;;;4.25;3.85;;;;;;;;;;5130927;27;20184;-56
2021/04/02 00:13:12;;;;;;;3.95;3.60;;;;;;;;;;5120436;27;20205;-56
2021/04/02 00:15:38;;;;;;;4.28;3.88;;;;;;;;;;5114185;28;20177;-56
2021/04/02 00:18:05;;;;;;;4.50;4.10;;;;;;;;;;5124032;27;20561;-56
2021/04/02 00:20:31;;;;;;;3.90;3.50;;;;;;;;;;5134673;27;20426;-56
2021/04/02 00:22:57;;;;;;;4.22;3.35;;;;;;;;;;5135562;27;20535;-56
2021/04/02 00:25:24;;;;;;;4.15;3.75;;;;;;;;;;5120262;27;20196;-56
2021/04/02 00:27:50;;;;;;;3.80;3.50;;;;;;;;;;5121719;27;20467;-56
2021/04/02 00:30:27;;;;;;;3.05;2.85;;;;;;;;;;5135218;27;20283;-56
2021/04/02 00:32:53;;;;;;;4.55;3.63;;;;;;;;;;5134742;27;20207;-57
2021/04/02 00:35:19;;;;;;;3.78;3.40;;;;;;;;;;5122391;27;20222;-56
2021/04/02 00:37:45;;;;;;;3.90;3.50;;;;;;;;;;5124309;27;20205;-56
2021/04/02 00:40:16;;;;;;;2.97;2.78;;;;;;;;;;5114601;28;20492;-56
2021/04/02 00:42:43;;;;;;;3.38;3.08;;;;;;;;;;5114147;28;20204;-56
2021/04/02 00:45:09;;;;;;;3.10;2.83;;;;;;;;;;5113881;28;20517;-56
2021/04/02 00:47:35;;;;;;;3.55;3.25;;;;;;;;;;5118204;27;20172;-56
2021/04/02 00:50:01;;;;;;;3.03;2.83;;;;;;;;;;5114969;28;20192;-56
2021/04/02 00:52:27;;;;;;;2.90;2.70;;;;;;;;;;5113724;28;20205;-56
2021/04/02 00:54:53;;;;;;;2.72;2.53;;;;;;;;;;5113915;28;20782;-56
2021/04/02 00:57:19;;;;;;;2.67;2.47;;;;;;;;;;5115883;28;20184;-56
2021/04/02 00:59:45;;;;;;;2.83;2.63;;;;;;;;;;5131450;27;20203;-56
2021/04/02 01:02:11;;;;;;;2.70;2.50;;;;;;;;;;5113988;28;20254;-56
2021/04/02 01:04:37;;;;;;;4.50;2.40;;;;;;;;;;5113272;28;20172;-56
2021/04/02 01:07:03;;;;;;;2.45;2.25;;;;;;;;;;5112117;28;20563;-56
2021/04/02 01:09:29;;;;;;;2.63;2.42;;;;;;;;;;5117173;28;20196;-56
2021/04/02 01:11:55;;;;;;;2.67;2.47;;;;;;;;;;5130250;28;20476;-56
2021/04/02 01:14:22;;;;;;;2.65;2.13;;;;;;;;;;5122194;28;20555;-56
2021/04/02 01:16:48;;;;;;;2.45;2.22;;;;;;;;;;5128926;28;20548;-56
2021/04/02 01:19:14;;;;;;;2.33;2.13;;;;;;;;;;5134497;27;20180;-56
2021/04/02 01:21:48;;;;;;;2.22;2.03;;;;;;;;;;5138560;27;20448;-56
2021/04/02 01:24:20;;;;;;;2.53;2.05;;;;;;;;;;5127812;27;20173;-56
2021/04/02 01:26:46;;;;;;;2.25;2.05;;;;;;;;;;5131740;27;20268;-57
2021/04/02 01:29:13;;;;;;;3.28;2.00;;;;;;;;;;5117189;27;20284;-56
2021/04/02 01:31:41;;;;;;;2.00;1.90;;;;;;;;;;5123813;27;20272;-56
2021/04/02 01:34:08;;;;;;;4.05;1.88;;;;;;;;;;5119765;27;20188;-56
2021/04/02 01:36:37;;;;;;;2.13;1.92;;;;;;;;;;5137189;27;20168;-56
2021/04/02 01:39:04;;;;;;;1.80;1.70;;;;;;;;;;5122473;27;20189;-56
2021/04/02 01:41:32;;;;;;;1.95;1.77;;;;;;;;;;5117236;28;20181;-57
2021/04/02 01:44:00;;;;;;;2.25;2.05;;;;;;;;;;5117550;28;20181;-57
2021/04/02 01:46:27;;;;;;;2.00;1.90;;;;;;;;;;5117026;28;20173;-57
2021/04/02 01:48:55;;;;;;;1.95;1.70;;;;;;;;;;5120393;27;20182;-56
2021/04/02 01:51:22;;;;;;;1.88;1.77;;;;;;;;;;5116774;28;20169;-56
2021/04/02 01:53:49;;;;;;;2.10;1.58;;;;;;;;;;5132533;27;20236;-56
2021/04/02 01:56:15;;;;;;;2.40;2.20;;;;;;;;;;5137336;27;20172;-56
2021/04/02 01:58:43;;;;;;;2.00;1.80;;;;;;;;;;5127815;27;20231;-56
2021/04/02 02:01:09;;;;;;;2.10;2.00;;;;;;;;;;5128630;27;20211;-56
2021/04/02 02:03:36;;;;;;;3.42;2.13;;;;;;;;;;5121011;27;20177;-56
2021/04/02 02:06:03;;;;;;;2.30;2.17;;;;;;;;;;5137526;27;20168;-56
2021/04/02 02:08:30;;;;;;;2.30;2.10;;;;;;;;;;5129154;27;20483;-56
2021/04/02 02:11:07;;;;;;;2.05;1.95;;;;;;;;;;5125683;27;20257;-56
2021/04/02 02:13:34;;;;;;;2.58;2.38;;;;;;;;;;5137450;27;20200;-57
2021/04/02 02:16:04;;;;;;;2.17;2.08;;;;;;;;;;5137202;27;20181;-57
2021/04/02 02:18:30;;;;;;;2.45;2.25;;;;;;;;;;5130664;27;21721;-57
2021/04/02 02:20:56;;;;;;;2.38;2.25;;;;;;;;;;5128113;27;20259;-57
2021/04/02 02:23:22;;;;;;;2.30;2.15;;;;;;;;;;5117546;27;20564;-57
2021/04/02 02:25:48;;;;;;;2.45;2.25;;;;;;;;;;5116609;28;20233;-57
2021/04/02 02:28:15;;;;;;;2.45;2.25;;;;;;;;;;5122052;27;20581;-57
2021/04/02 02:30:43;;;;;;;2.70;2.50;;;;;;;;;;5129983;27;20192;-57
2021/04/02 02:33:10;;;;;;;2.72;2.53;;;;;;;;;;5116919;28;20205;-57
2021/04/02 02:35:36;;;;;;;2.72;2.53;;;;;;;;;;5130459;27;20198;-56
2021/04/02 02:38:02;;;;;;;3.25;3.05;;;;;;;;;;5129684;27;21826;-56
2021/04/02 02:40:33;;;;;;;3.20;2.95;;;;;;;;;;5132696;27;20248;-56
2021/04/02 02:42:59;;;;;;;4.38;3.97;;;;;;;;;;5116829;28;20192;-56
2021/04/02 02:45:26;;;;;;;3.20;3.00;;;;;;;;;;5115048;28;20184;-56
2021/04/02 02:47:52;;;;;;;3.83;3.53;;;;;;;;;;5127666;27;20195;-57
2021/04/02 02:50:20;;;;;;;3.85;3.55;;;;;;;;;;5118930;27;20185;-57
2021/04/02 02:52:47;;;;;;;3.47;3.17;;;;;;;;;;5135193;27;20586;-57
2021/04/02 02:55:14;;;;;;;4.93;2.70;;;;;;;;;;5136617;27;20259;-57
2021/04/02 02:57:40;;;;;;;3.10;2.80;;;;;;;;;;5136703;27;20178;-57
2021/04/02 03:00:10;;;;;;;3.38;3.17;;;;;;;;;;5117157;27;20200;-57
2021/04/02 03:02:36;;;;;;;3.53;3.22;;;;;;;;;;5119643;27;20224;-57
2021/04/02 03:05:02;;;;;;;3.40;3.10;;;;;;;;;;5115602;28;20430;-57
2021/04/02 03:07:29;;;;;;;3.38;3.08;;;;;;;;;;5116816;28;20600;-57
2021/04/02 03:09:56;;;;;;;3.00;2.80;;;;;;;;;;5129490;27;20181;-57
2021/04/02 03:12:23;;;;;;;3.22;3.03;;;;;;;;;;5123523;27;20192;-57
2021/04/02 03:14:49;;;;;;;3.22;3.03;;;;;;;;;;5115565;28;20173;-57
2021/04/02 03:17:16;;;;;;;2.95;2.75;;;;;;;;;;5115985;28;20533;-57
2021/04/02 03:19:43;;;;;;;3.00;2.80;;;;;;;;;;5131369;27;20259;-57
2021/04/02 03:22:09;;;;;;;2.95;2.75;;;;;;;;;;5116919;27;20185;-57
2021/04/02 03:24:39;;;;;;;2.88;2.67;;;;;;;;;;5115208;28;20177;-57
2021/04/02 03:27:06;;;;;;;2.95;2.75;;;;;;;;;;5115940;28;20233;-57
2021/04/02 03:29:32;;;;;;;3.35;3.08;;;;;;;;;;5129404;27;20252;-57
2021/04/02 03:32:00;;;;;;;3.78;3.47;;;;;;;;;;5118433;27;20587;-57
2021/04/02 03:34:26;;;;;;;3.50;3.20;;;;;;;;;;5119328;27;20184;-58
2021/04/02 03:36:54;;;;;;;3.03;2.72;;;;;;;;;;5136077;27;20172;-58
2021/04/02 03:39:23;;;;;;;3.20;2.90;;;;;;;;;;5135369;27;20195;-57
2021/04/02 03:41:52;;;;;;;2.80;2.60;;;;;;;;;;5119185;27;20205;-58
2021/04/02 03:44:20;;;;;;;2.70;2.50;;;;;;;;;;5115182;28;20351;-57
2021/04/02 03:46:48;;;;;;;2.83;2.63;;;;;;;;;;5119539;27;20177;-57
2021/04/02 03:49:16;;;;;;;2.40;2.30;;;;;;;;;;5136169;27;20165;-57
2021/04/02 03:51:43;;;;;;;2.92;2.67;;;;;;;;;;5133818;27;20477;-58
2021/04/02 03:54:11;;;;;;;2.58;2.38;;;;;;;;;;5135624;27;20260;-57
2021/04/02 03:56:37;;;;;;;2.47;2.28;;;;;;;;;;5135481;27;20173;-57
2021/04/02 03:59:04;;;;;;;2.45;2.25;;;;;;;;;;5135608;27;20428;-57
2021/04/02 04:01:35;;;;;;;2.22;2.13;;;;;;;;;;5119698;27;20201;-57
2021/04/02 04:04:01;;;;;;;2.78;2.17;;;;;;;;;;5118502;27;20639;-57
2021/04/02 04:06:29;;;;;;;2.38;2.17;;;;;;;;;;5134920;27;20274;-57
2021/04/02 04:08:59;;;;;;;2.42;2.22;;;;;;;;;;5135359;27;20618;-57
2021/04/02 04:11:26;;;;;;;2.08;1.90;;;;;;;;;;5120632;27;20267;-57
2021/04/02 04:13:53;;;;;;;1.83;1.73;;;;;;;;;;5116103;27;20643;-57
2021/04/02 04:16:22;;;;;;;2.00;1.67;;;;;;;;;;5131417;27;20459;-57
2021/04/02 04:18:49;;;;;;;2.22;2.10;;;;;;;;;;5129555;27;20524;-57
2021/04/02 04:21:16;;;;;;;2.30;2.10;;;;;;;;;;5128823;27;20236;-57
2021/04/02 04:23:43;;;;;;;2.58;2.40;;;;;;;;;;5135029;27;20884;-57
2021/04/02 04:26:10;;;;;;;2.92;2.72;;;;;;;;;;5134797;27;20259;-57
2021/04/02 04:28:37;;;;;;;2.03;1.92;;;;;;;;;;5133392;27;20180;-58
2021/04/02 04:31:06;;;;;;;2.70;2.50;;;;;;;;;;5124245;27;20196;-57
2021/04/02 04:33:32;;;;;;;2.80;2.60;;;;;;;;;;5114269;28;20576;-57
2021/04/02 04:35:59;;;;;;;2.55;2.35;;;;;;;;;;5129705;27;20618;-57
2021/04/02 04:38:25;;;;;;;2.50;2.30;;;;;;;;;;5134955;27;20165;-57
2021/04/02 04:40:52;;;;;;;2.20;2.10;;;;;;;;;;5125672;27;20450;-57
2021/04/02 04:43:19;;;;;;;2.20;2.00;;;;;;;;;;5116100;28;20192;-57
2021/04/02 04:45:45;;;;;;;2.22;2.13;;;;;;;;;;5113979;28;20259;-57
2021/04/02 04:48:11;;;;;;;2.10;2.00;;;;;;;;;;5096868;28;20177;-57
2021/04/02 04:50:38;;;;;;;1.98;1.88;;;;;;;;;;5133692;27;20188;-57
2021/04/02 04:53:06;;;;;;;2.08;1.98;;;;;;;;;;5121147;27;20204;-58
2021/04/02 04:55:33;;;;;;;1.70;1.60;;;;;;;;;;5113277;28;20173;-57
2021/04/02 04:58:00;;;;;;;1.90;1.80;;;;;;;;;;5115340;28;20177;-57
2021/04/02 05:00:29;;;;;;;2.10;1.90;;;;;;;;;;5131037;27;20562;-57
2021/04/02 05:02:56;;;;;;;1.90;1.80;;;;;;;;;;5122052;27;20181;-58
2021/04/02 05:05:24;;;;;;;1.83;1.73;;;;;;;;;;5113214;28;20223;-58
2021/04/02 05:07:52;;;;;;;1.92;1.83;;;;;;;;;;5114141;28;20192;-57
2021/04/02 05:10:19;;;;;;;1.88;1.77;;;;;;;;;;5117820;28;20215;-57
2021/04/02 05:12:46;;;;;;;1.85;1.75;;;;;;;;;;5114931;28;20599;-57
2021/04/02 05:15:13;;;;;;;1.95;1.83;;;;;;;;;;5114913;28;20177;-57
2021/04/02 05:17:39;;;;;;;1.67;1.55;;;;;;;;;;5131354;28;20271;-57
2021/04/02 05:20:06;;;;;;;2.00;1.60;;;;;;;;;;5102384;28;20181;-57
2021/04/02 05:22:32;;;;;;;1.75;1.65;;;;;;;;;;5117346;28;20197;-57
2021/04/02 05:24:58;;;;;;;1.98;1.40;;;;;;;;;;5114689;28;20183;-57
2021/04/02 05:27:26;;;;;;;2.30;1.30;;;;;;;;;;5126419;28;20184;-48
2021/04/02 05:29:52;;;;;;;2.85;1.45;;;;;;;;;;5122053;28;20181;-49
2021/04/02 05:32:18;;;;;;;1.40;1.23;;;;;;;;;;5123479;28;20257;-46
2021/04/02 05:34:44;;;;;;;1.80;1.35;;;;;;;;;;5126125;28;20209;-54
2021/04/02 05:37:10;;;;;;;3.38;1.30;;;;;;;;;;5113803;28;20192;-49
2021/04/02 05:39:36;;;;;;;4.63;1.40;;;;;;;;;;5124784;28;20222;-49
2021/04/02 05:42:06;;;;;;;2.88;1.33;;;;;;;;;;5133288;28;20489;-53
2021/04/02 05:44:33;;;;;;;2.80;1.00;;;;;;;;;;5133590;28;20221;-54
2021/04/02 05:47:06;;;;;;;4.78;1.60;;;;;;;;;;5134369;28;20185;-52
2021/04/02 05:49:33;;;;;;;2.45;1.33;;;;;;;;;;5128889;28;20184;-51
2021/04/02 05:52:00;;;;;;;1.40;1.30;;;;;;;;;;5134115;28;20192;-48
2021/04/02 05:54:34;;;;;;;2.05;1.40;;;;;;;;;;5133404;28;20582;-48
2021/04/02 05:57:01;;;;;;;2.00;1.30;;;;;;;;;;5111398;28;20172;-50
2021/04/02 05:59:27;;;;;;;2.47;1.23;;;;;;;;;;5124636;28;20604;-52
2021/04/02 06:01:54;;;;;;;1.85;1.23;;;;;;;;;;5134178;28;20180;-49
2021/04/02 06:04:20;;;;;;;3.17;1.40;;;;;;;;;;5133746;27;20176;-50
2021/04/02 06:06:46;;;;;;;1.42;1.27;;;;;;;;;;5136701;27;20242;-49
2021/04/02 06:09:13;;;;;;;2.72;1.42;;;;;;;;;;5128098;27;20234;-48
2021/04/02 06:11:39;;;;;;;3.45;1.65;;;;;;;;;;5116827;28;20471;-48
2021/04/02 06:14:06;;;;;;;1.90;1.20;;;;;;;;;;5119404;27;20177;-49
2021/04/02 06:16:32;;;;;;;1.70;1.10;;;;;;;;;;5121283;27;20180;-50
2021/04/02 06:19:05;;;;;;;1.95;1.10;;;;;;;;;;5134854;27;20177;-54
2021/04/02 06:21:31;;;;;;;1.42;1.20;;;;;;;;;;5136757;27;20248;-54
2021/04/02 06:23:57;;;;;;;1.27;1.15;;;;;;;;;;5135910;27;20263;-54
2021/04/02 06:26:23;;;;;;;1.90;1.40;;;;;;;;;;5136900;27;20190;-54
2021/04/02 06:28:49;;;;;;;2.25;1.35;;;;;;;;;;5135869;27;20176;-53
2021/04/02 06:31:15;;;;;;;1.40;0.93;;;;;;;;;;5121452;27;20521;-54
2021/04/02 06:33:45;;;;;;;1.60;1.10;;;;;;;;;;5126605;27;20915;-54
2021/04/02 06:36:14;;;;;;;1.52;1.00;;;;;;;;;;5135972;27;20180;-53
2021/04/02 06:38:48;;;;;;;2.53;1.13;;;;;;;;;;5133800;27;20189;-51
2021/04/02 06:41:15;;;;;;;1.90;1.00;;;;;;;;;;5117722;27;20187;-49
2021/04/02 06:43:44;;;;;;;1.77;1.23;;;;;;;;;;5120098;27;20185;-52
2021/04/02 06:46:11;;;;;;;7.68;1.30;;;;;;;;;;5122684;27;20268;-51
2021/04/02 06:48:37;;;;;;;1.30;1.00;;;;;;;;;;5116308;28;20173;-53
2021/04/02 06:51:03;;;;;;;1.33;0.90;;;;;;;;;;5116541;28;20189;-49
2021/04/02 06:53:32;;;;;;;2.15;1.33;;;;;;;;;;5116207;28;20254;-52
2021/04/02 06:55:59;;;;;;;1.88;1.30;;;;;;;;;;5116033;28;20173;-49
2021/04/02 06:58:27;;;;;;;1.73;1.27;;;;;;;;;;5118276;27;20220;-49
2021/04/02 07:00:54;;;;;;;1.00;0.82;;;;;;;;;;5127649;27;20212;-54
2021/04/02 07:03:20;;;;;;;3.88;1.38;;;;;;;;;;5135288;27;20216;-52
2021/04/02 07:05:46;;;;;;;1.75;0.90;;;;;;;;;;5135950;27;20222;-50
2021/04/02 07:08:16;;;;;;;1.00;1.00;;;;;;;;;;5135453;27;20335;-53
2021/04/02 07:10:42;;;;;;;4.10;1.60;;;;;;;;;;5130036;27;20554;-58
2021/04/02 07:13:09;;;;;;;5.85;0.90;;;;;;;;;;5118857;27;20201;-52
2021/04/02 07:15:36;;;;;;;0.90;0.90;;;;;;;;;;5115477;28;20428;-50
2021/04/02 07:18:04;;;;;;;3.08;1.38;;;;;;;;;;5117331;27;20316;-52
2021/04/02 07:20:30;;;;;;;2.95;0.98;;;;;;;;;;5127231;27;20188;-50
2021/04/02 07:22:57;;;;;;;0.98;0.93;;;;;;;;;;5131868;27;20184;-50
2021/04/02 07:25:23;;;;;;;1.45;1.20;;;;;;;;;;5134852;27;20176;-50
2021/04/02 07:27:51;;;;;;;0.70;0.70;;;;;;;;;;5117476;27;20566;-48
2021/04/02 07:30:18;;;;;;;2.40;0.80;;;;;;;;;;5135626;27;20184;-50
2021/04/02 07:32:44;;;;;;;2.97;0.93;;;;;;;;;;5135805;27;20211;-51
2021/04/02 07:35:17;;;;;;;2.00;0.75;;;;;;;;;;5122714;27;20177;-50
2021/04/02 07:37:47;;;;;;;2.47;1.08;;;;;;;;;;5116287;27;20188;-54
2021/04/02 07:40:13;;;;;;;5.25;1.17;;;;;;;;;;5119909;27;20268;-50
2021/04/02 07:42:39;;;;;;;3.47;0.95;;;;;;;;;;5135730;27;20184;-53
2021/04/02 07:45:06;;;;;;;4.22;1.00;;;;;;;;;;5135730;27;20629;-51
2021/04/02 07:47:32;;;;;;;1.77;0.90;;;;;;;;;;5118725;27;20177;-51
2021/04/02 07:50:01;;;;;;;2.75;1.08;;;;;;;;;;5115384;28;20196;-50
2021/04/02 07:52:30;;;;;;;1.98;0.95;;;;;;;;;;5118965;27;20234;-53
2021/04/02 07:55:07;;;;;;;2.78;0.93;;;;;;;;;;5133787;27;20188;-51
2021/04/02 07:57:48;;;;;;;1.65;0.90;;;;;;;;;;5131250;27;20491;-53
2021/04/02 08:00:14;;;;;;;1.17;1.08;;;;;;;;;;5128101;27;20181;-48
2021/04/02 08:02:43;;;;;;;1.15;0.90;;;;;;;;;;5114293;28;20960;-55
2021/04/02 08:05:16;;;;;;;1.17;0.98;;;;;;;;;;5114904;27;20173;-54
2021/04/02 08:07:43;;;;;;;1.33;0.90;;;;;;;;;;5121748;27;20196;-49
2021/04/02 08:10:14;;;;;;;1.10;1.00;;;;;;;;;;5121111;27;20271;-56
2021/04/02 08:12:40;;;;;;;0.82;0.80;;;;;;;;;;5133503;27;20243;-47
2021/04/02 08:15:10;;;;;;;1.05;0.90;;;;;;;;;;5134285;27;20851;-48
2021/04/02 08:17:37;;;;;;;1.05;0.95;;;;;;;;;;5131483;27;20192;-49
2021/04/02 08:20:09;;;;;;;2.80;0.93;;;;;;;;;;5126824;27;20186;-48
2021/04/02 08:22:36;;;;;;;1.25;0.60;;;;;;;;;;5126997;27;20267;-49
2021/04/02 08:25:05;;;;;;;4.65;1.00;;;;;;;;;;5116260;27;20191;-50
2021/04/02 08:27:32;;;;;;;8.93;1.20;;;;;;;;;;5114361;28;20179;-49
2021/04/02 08:30:03;;;;;;;2.08;0.93;;;;;;;;;;5113998;28;20441;-50
2021/04/02 08:32:32;;;;;;;3.03;0.98;;;;;;;;;;5121815;27;20200;-49
2021/04/02 08:34:59;;;;;;;2.85;0.80;;;;;;;;;;5123569;27;20548;-50
2021/04/02 08:37:26;;;;;;;1.08;0.80;;;;;;;;;;5117587;27;20183;-54
2021/04/02 08:39:53;;;;;;;1.90;0.93;;;;;;;;;;5133407;27;20172;-50
2021/04/02 08:42:21;;;;;;;1.80;0.80;;;;;;;;;;5124805;27;20800;-52
2021/04/02 08:44:47;;;;;;;5.68;0.95;;;;;;;;;;5118072;27;20177;-51
2021/04/02 08:47:18;;;;;;;6.28;1.02;;;;;;;;;;5123305;27;20184;-51
2021/04/02 08:49:48;;;;;;;4.65;1.30;;;;;;;;;;5132831;27;20271;-51
2021/04/02 08:52:16;;;;;;;13.73;1.42;;;;;;;;;;5119710;27;20494;-51
2021/04/02 08:54:43;;;;;;;7.40;1.25;;;;;;;;;;5128300;27;20195;-51
2021/04/02 08:57:09;;;;;;;5.60;1.38;;;;;;;;;;5130245;27;20623;-51
2021/04/02 08:59:37;;;;;;;4.32;1.13;;;;;;;;;;5115144;28;20185;-51
2021/04/02 09:02:04;;;;;;;5.45;1.20;;;;;;;;;;5115925;28;20567;-50
2021/04/02 09:04:31;;;;;;;2.92;1.02;;;;;;;;;;5116319;28;20201;-51
2021/04/02 09:06:57;;;;;;;2.38;1.25;;;;;;;;;;5116774;28;20213;-51
2021/04/02 09:09:24;;;;;;;2.35;1.10;;;;;;;;;;5116580;28;20169;-51
2021/04/02 09:11:55;;;;;;;2.67;1.00;;;;;;;;;;5116964;28;20409;-51
2021/04/02 09:14:21;;;;;;;5.38;1.02;;;;;;;;;;5116473;28;20177;-51
2021/04/02 09:16:48;;;;;;;3.38;1.10;;;;;;;;;;5116729;28;20169;-51
2021/04/02 09:19:15;;;;;;;6.30;1.17;;;;;;;;;;5116880;28;20204;-51
2021/04/02 09:21:41;;;;;;;5.03;1.20;;;;;;;;;;5116354;28;20179;-50
2021/04/02 09:27:15;;;;;;;2.70;0.98;;;;;;;;;;5116842;28;20222;-51
2021/04/02 09:29:45;;;;;;;1.75;1.05;;;;;;;;;;5116416;28;20177;-51
2021/04/02 09:32:11;;;;;;;2.83;1.10;;;;;;;;;;5116599;28;20304;-51
2021/04/02 09:34:37;;;;;;;1.48;0.88;;;;;;;;;;5116084;28;20165;-50
2021/04/02 09:37:04;;;;;;;1.67;0.90;;;;;;;;;;5116723;28;20468;-51
2021/04/02 09:42:34;;;;;;;3.17;1.08;;;;;;;;;;5120716;28;20179;-50
2021/04/02 09:45:08;;;;;;;2.33;1.15;;;;;;;;;;5120355;28;20173;-50
2021/04/02 09:47:47;;;;;;;8.30;1.35;;;;;;;;;;5120191;28;20177;-50
2021/04/02 09:50:14;;;;;;;6.60;1.23;;;;;;;;;;5120473;28;20204;-51
2021/04/02 09:55:44;;;;;;;3.45;1.35;;;;;;;;;;5120034;28;20926;-50
2021/04/02 09:58:10;;;;;;;3.47;1.17;;;;;;;;;;5120394;28;20201;-51
2021/04/02 10:00:36;;;;;;;3.35;1.20;;;;;;;;;;5119882;28;20165;-51
2021/04/02 10:03:10;;;;;;;2.40;1.30;;;;;;;;;;5121485;27;20192;-50
2021/04/02 10:05:36;;;;;;;3.28;1.10;;;;;;;;;;5132906;27;20200;-51
2021/04/02 10:08:02;;;;;;;4.10;1.33;;;;;;;;;;5121851;27;20216;-50
2021/04/02 10:10:28;;;;;;;3.22;1.60;;;;;;;;;;5137713;27;20176;-51
2021/04/02 10:12:55;;;;;;;7.32;1.52;;;;;;;;;;5127659;27;20265;-51
2021/04/02 10:15:21;;;;;;;2.50;1.23;;;;;;;;;;5116148;28;20177;-50
2021/04/02 10:17:47;;;;;;;1.73;1.08;;;;;;;;;;5127981;27;20275;-50
2021/04/02 10:20:13;;;;;;;4.32;1.30;;;;;;;;;;5137897;27;20168;-50
2021/04/02 10:22:39;;;;;;;1.52;1.00;;;;;;;;;;5132619;27;20259;-51
2021/04/02 10:25:06;;;;;;;3.30;1.05;;;;;;;;;;5137215;27;20252;-51
2021/04/02 10:27:32;;;;;;;3.78;1.33;;;;;;;;;;5129054;27;20525;-51
2021/04/02 10:29:58;;;;;;;3.63;1.35;;;;;;;;;;5117033;28;20263;-51
2021/04/02 10:32:24;;;;;;;1.60;1.00;;;;;;;;;;5116617;28;20246;-51
2021/04/02 10:34:50;;;;;;;2.40;1.20;;;;;;;;;;5125576;27;20185;-51
2021/04/02 10:37:16;;;;;;;2.65;1.20;;;;;;;;;;5124097;27;20189;-51
2021/04/02 10:39:42;;;;;;;2.15;1.08;;;;;;;;;;5125975;27;20233;-51
2021/04/02 10:42:08;;;;;;;1.73;1.20;;;;;;;;;;5137180;27;20191;-51
2021/04/02 10:44:34;;;;;;;2.05;1.05;;;;;;;;;;5136360;27;20233;-50
2021/04/02 10:47:00;;;;;;;3.78;1.08;;;;;;;;;;5131989;27;20239;-50
2021/04/02 10:49:27;;;;;;;1.05;1.00;;;;;;;;;;5119098;27;20322;-50
2021/04/02 10:51:53;;;;;;;1.95;1.60;;;;;;;;;;5122596;27;20212;-51
2021/04/02 10:54:19;;;;;;;2.25;1.10;;;;;;;;;;5116298;28;20233;-51
2021/04/02 10:56:45;;;;;;;2.90;1.30;;;;;;;;;;5118458;27;20466;-50
2021/04/02 10:59:12;;;;;;;1.38;1.05;;;;;;;;;;5134933;27;20184;-51
2021/04/02 11:01:38;;;;;;;1.45;1.10;;;;;;;;;;5123519;27;20213;-51
2021/04/02 11:04:04;;;;;;;1.52;1.00;;;;;;;;;;5119168;27;20812;-50
2021/04/02 11:06:30;;;;;;;2.45;1.10;;;;;;;;;;5128959;27;20273;-50
2021/04/02 11:08:56;;;;;;;1.25;1.13;;;;;;;;;;5129100;27;20176;-51
2021/04/02 11:11:22;;;;;;;2.00;0.93;;;;;;;;;;5122657;27;20551;-51
2021/04/02 11:13:48;;;;;;;1.73;0.98;;;;;;;;;;5130907;27;20272;-51
2021/04/02 11:16:14;;;;;;;1.88;1.30;;;;;;;;;;5125490;27;20177;-51
2021/04/02 11:18:41;;;;;;;1.80;1.13;;;;;;;;;;5126723;27;20196;-51
2021/04/02 11:21:08;;;;;;;5.53;2.45;;;;;;;;;;5122122;27;20173;-51
2021/04/02 11:23:33;;;;;;;13.25;6.00;;;;;;;;;;5123241;27;20185;-51
2021/04/02 11:25:59;;;;;;;12.38;5.93;;;;;;;;;;5120074;27;20199;-51
2021/04/02 11:28:26;;;;;;;8.15;4.50;;;;;;;;;;5115425;28;20188;-52
2021/04/02 11:30:52;;;;;;;8.88;4.35;;;;;;;;;;5129132;27;20188;-51
2021/04/02 11:33:18;;;;;;;7.78;4.03;;;;;;;;;;5118585;27;20471;-51
2021/04/02 11:35:44;;;;;;;17.67;4.63;;;;;;;;;;5116755;27;20692;-51
2021/04/02 11:38:10;;;;;;;10.55;4.70;;;;;;;;;;5117500;27;20189;-51
2021/04/02 11:40:37;;;;;;;12.27;4.80;;;;;;;;;;5116433;27;20193;-51
2021/04/02 11:43:04;;;;;;;13.00;4.70;;;;;;;;;;5118209;27;20184;-51
2021/04/02 11:45:30;;;;;;;12.95;6.00;;;;;;;;;;5122310;27;20526;-52
2021/04/02 11:47:56;;;;;;;16.30;6.90;;;;;;;;;;5133764;27;20267;-51
2021/04/02 11:50:22;;;;;;;17.15;8.13;;;;;;;;;;5128776;27;20264;-51
2021/04/02 11:52:48;;;;;;;14.68;9.40;;;;;;;;;;5134549;27;20207;-51
2021/04/02 11:55:14;;;;;;;23.10;11.13;;;;;;;;;;5127082;27;20181;-51
2021/04/02 11:57:41;;;;;;;19.40;10.70;;;;;;;;;;5115771;27;20264;-51
2021/04/02 12:00:08;;;;;;;23.27;11.68;;;;;;;;;;5116199;27;20233;-51
2021/04/02 12:02:34;;;;;;;21.98;11.52;;;;;;;;;;5115280;27;20189;-51
2021/04/02 12:05:00;;;;;;;21.30;10.82;;;;;;;;;;5118613;27;20263;-51
2021/04/02 12:07:26;;;;;;;25.83;12.07;;;;;;;;;;5130585;27;20276;-51
2021/04/02 12:09:52;;;;;;;21.70;10.38;;;;;;;;;;5118095;27;20571;-51
2021/04/02 12:12:18;;;;;;;25.30;11.10;;;;;;;;;;5118656;27;20226;-51
2021/04/02 12:14:44;;;;;;;23.50;10.75;;;;;;;;;;5115201;27;20177;-51
2021/04/02 12:17:10;;;;;;;25.45;10.60;;;;;;;;;;5123099;27;20184;-51
2021/04/02 12:19:36;;;;;;;21.73;9.50;;;;;;;;;;5120087;27;20185;-51
2021/04/02 12:22:02;;;;;;;21.23;8.85;;;;;;;;;;5129979;27;20514;-51
2021/04/02 12:24:29;;;;;;;15.02;7.57;;;;;;;;;;5116643;27;20177;-51
2021/04/02 12:26:55;;;;;;;16.75;7.97;;;;;;;;;;5126963;27;20208;-50
2021/04/02 12:29:21;;;;;;;18.10;7.57;;;;;;;;;;5119148;27;20201;-51
2021/04/02 12:31:47;;;;;;;14.77;6.85;;;;;;;;;;5133407;27;20234;-52
2021/04/02 12:34:13;;;;;;;13.35;7.00;;;;;;;;;;5119080;27;20212;-51
2021/04/02 12:36:39;;;;;;;18.38;6.03;;;;;;;;;;5132281;27;20552;-51
2021/04/02 12:39:05;;;;;;;10.82;5.78;;;;;;;;;;5114771;27;20237;-51
2021/04/02 12:41:31;;;;;;;16.70;5.63;;;;;;;;;;5117002;27;20245;-51
2021/04/02 12:43:57;;;;;;;10.98;5.05;;;;;;;;;;5124491;27;20184;-51
2021/04/02 12:46:23;;;;;;;10.82;4.85;;;;;;;;;;5123519;27;20196;-51
2021/04/02 12:48:49;;;;;;;11.18;4.82;;;;;;;;;;5119965;27;20264;-51
2021/04/02 12:51:15;;;;;;;9.38;4.47;;;;;;;;;;5133229;27;20196;-51
2021/04/02 12:53:42;;;;;;;10.98;4.35;;;;;;;;;;5119341;27;20192;-52
2021/04/02 12:56:08;;;;;;;9.73;4.35;;;;;;;;;;5114957;27;20211;-51
2021/04/02 12:58:34;;;;;;;7.80;4.00;;;;;;;;;;5115513;27;20230;-52
2021/04/02 13:01:00;;;;;;;8.80;4.13;;;;;;;;;;5123476;27;20270;-52
2021/04/02 13:03:26;;;;;;;6.93;3.55;;;;;;;;;;5134385;27;20182;-52
2021/04/02 13:05:52;;;;;;;8.57;3.75;;;;;;;;;;5119533;28;20185;-51
2021/04/02 13:08:18;;;;;;;5.38;3.47;;;;;;;;;;5114342;28;20197;-51
2021/04/02 13:10:44;;;;;;;6.70;3.30;;;;;;;;;;5114844;28;20169;-51
2021/04/02 13:13:10;;;;;;;5.85;3.25;;;;;;;;;;5113936;28;20560;-51
2021/04/02 13:15:37;;;;;;;4.68;2.55;;;;;;;;;;5121433;27;20296;-51
2021/04/02 13:18:04;;;;;;;5.15;2.90;;;;;;;;;;5135942;27;20460;-52
2021/04/02 13:20:30;;;;;;;6.25;2.90;;;;;;;;;;5141034;27;20176;-51
2021/04/02 13:22:57;;;;;;;5.97;2.70;;;;;;;;;;5139655;27;20184;-51
2021/04/02 13:25:25;;;;;;;6.40;2.97;;;;;;;;;;5127418;27;20192;-51
2021/04/02 13:27:51;;;;;;;5.65;2.30;;;;;;;;;;5120646;28;20527;-51
2021/04/02 13:30:17;;;;;;;5.05;2.58;;;;;;;;;;5122017;27;20267;-51
2021/04/02 13:32:44;;;;;;;5.45;2.20;;;;;;;;;;5121626;27;20248;-51
2021/04/02 13:35:11;;;;;;;4.22;2.08;;;;;;;;;;5131352;27;20575;-52
2021/04/02 13:37:37;;;;;;;4.45;2.63;;;;;;;;;;5135617;27;20177;-51
2021/04/02 13:40:04;;;;;;;3.33;1.98;;;;;;;;;;5123321;27;20177;-51
2021/04/02 13:42:30;;;;;;;3.20;2.00;;;;;;;;;;5136480;27;20192;-51
2021/04/02 13:44:56;;;;;;;6.60;2.40;;;;;;;;;;5140978;27;20249;-51
2021/04/02 13:47:22;;;;;;;3.90;1.92;;;;;;;;;;5131741;27;20196;-51
2021/04/02 13:49:48;;;;;;;3.17;1.90;;;;;;;;;;5131997;27;20632;-51
2021/04/02 13:52:14;;;;;;;8.35;2.55;;;;;;;;;;5122449;27;20682;-51
2021/04/02 13:54:40;;;;;;;7.90;2.63;;;;;;;;;;5140252;27;20543;-51
2021/04/02 13:57:07;;;;;;;6.30;2.40;;;;;;;;;;5139749;27;20181;-52
2021/04/02 13:59:33;;;;;;;12.30;2.05;;;;;;;;;;5124698;27;20192;-51
2021/04/02 14:01:59;;;;;;;6.68;2.17;;;;;;;;;;5126660;27;20173;-51
2021/04/02 14:04:25;;;;;;;9.55;2.65;;;;;;;;;;5121776;27;20260;-51
2021/04/02 14:06:51;;;;;;;4.40;1.90;;;;;;;;;;5122288;27;20365;-51
2021/04/02 14:09:17;;;;;;;5.88;2.15;;;;;;;;;;5140975;27;20184;-51
2021/04/02 14:11:46;;;;;;;3.80;2.10;;;;;;;;;;5138478;27;20176;-51
2021/04/02 14:14:12;;;;;;;5.38;1.80;;;;;;;;;;5130335;27;20302;-51
2021/04/02 14:16:39;;;;;;;7.53;1.90;;;;;;;;;;5129436;27;20184;-52
2021/04/02 14:19:05;;;;;;;3.28;1.75;;;;;;;;;;5140108;27;20164;-52
2021/04/02 14:21:31;;;;;;;7.72;2.03;;;;;;;;;;5127120;27;20501;-52
2021/04/02 14:23:57;;;;;;;3.55;1.60;;;;;;;;;;5126856;27;20215;-52
2021/04/02 14:26:23;;;;;;;5.72;2.17;;;;;;;;;;5135648;27;20188;-52
2021/04/02 14:28:49;;;;;;;7.15;2.05;;;;;;;;;;5137684;27;20180;-52
2021/04/02 14:31:15;;;;;;;4.35;1.83;;;;;;;;;;5137579;27;20254;-52
2021/04/02 14:33:41;;;;;;;4.57;1.40;;;;;;;;;;5137071;27;20283;-52
2021/04/02 14:36:07;;;;;;;4.50;2.03;;;;;;;;;;5118924;27;20217;-52
2021/04/02 14:38:34;;;;;;;4.45;1.83;;;;;;;;;;5118206;27;20196;-52
2021/04/02 14:41:00;;;;;;;4.93;1.58;;;;;;;;;;5099296;28;20231;-52
2021/04/02 14:43:26;;;;;;;3.45;1.50;;;;;;;;;;5116575;28;20202;-52
2021/04/02 14:45:52;;;;;;;2.20;1.52;;;;;;;;;;5116460;28;20588;-52
2021/04/02 14:48:18;;;;;;;4.03;1.67;;;;;;;;;;5116979;28;20272;-52